Terminal Aerodrome Forecast
Issued by NWS

Home | Current Version | Previous Version | Text Only | Print | Product List | Glossary On
Versions: 1 2 3 4 5 6 7 8 9 10 11 12 13
000
FTUS43 KAPX 301741
TAFAPN
TAF
KAPN 301741Z 3018/3118 09012G19KT P6SM FEW050
     FM302300 07006KT P6SM SCT250
     FM310400 VRB03KT P6SM SCT050 BKN080
     FM311300 08007KT P6SM BKN060=

USA.gov is the U.S. government's official web portal to all federal, state and local government web resources and services.